Time;durP1;ratioP1;P1;durP2;ratioP2;P2;SDS_P1;SDS_P2;PMS_P1;PMS_P2;Temp;Humidity;BMP_temperature;BMP_pressure;BME280_temperature;BME280_humidity;BME280_pressure;Samples;Min_cycle;Max_cycle;Signal;HPM_P1;HPM_P2
2022/11/06 00:01:08;;;;;;;2.83;2.22;;;0.80;99.90;;;;;;5111471;28;20047;-73
2022/11/06 00:03:35;;;;;;;2.80;2.17;;;2.00;99.90;;;;;;5111262;28;20015;-73
2022/11/06 00:08:52;;;;;;;2.03;1.83;;;1.00;99.90;;;;;;5111499;28;20054;-77
2022/11/06 00:11:18;;;;;;;6.05;2.50;;;1.00;99.90;;;;;;5110590;28;20496;-73
2022/11/06 00:13:46;;;;;;;18.85;2.22;;;1.30;99.90;;;;;;5111277;28;20044;-74
2022/11/06 00:16:13;;;;;;;1.40;1.30;;;1.40;99.90;;;;;;5111059;28;20430;-74
2022/11/06 00:18:39;;;;;;;3.42;2.28;;;2.90;99.90;;;;;;5111377;28;20482;-77
2022/11/06 00:21:14;;;;;;;2.47;1.88;;;0.90;99.90;;;;;;5111234;28;20024;-74
2022/11/06 00:23:40;;;;;;;2.05;1.60;;;0.80;99.90;;;;;;5111108;28;20035;-73
2022/11/06 00:26:12;;;;;;;1.90;1.73;;;0.80;99.90;;;;;;5111317;28;20016;-74
2022/11/06 00:28:38;;;;;;;3.00;2.47;;;1.10;99.90;;;;;;5110813;28;20023;-73
2022/11/06 00:31:10;;;;;;;1.50;1.40;;;0.70;99.90;;;;;;5092670;28;20132;-73
2022/11/06 00:33:36;;;;;;;3.42;1.98;;;1.20;99.90;;;;;;5110160;28;20109;-75
2022/11/06 00:36:06;;;;;;;3.05;1.60;;;0.60;99.90;;;;;;5092287;28;20488;-73
2022/11/06 00:38:33;;;;;;;3.08;1.70;;;0.60;99.90;;;;;;5110631;28;20410;-73
2022/11/06 00:41:11;;;;;;;3.78;2.55;;;0.50;99.90;;;;;;5110887;28;20020;-74
2022/11/06 00:43:37;;;;;;;2.85;2.08;;;0.50;99.90;;;;;;5092246;28;20077;-73
2022/11/06 00:46:08;;;;;;;5.72;2.67;;;2.00;99.90;;;;;;5110636;28;20032;-75
2022/11/06 00:48:35;;;;;;;4.32;2.60;;;0.50;99.90;;;;;;5110053;28;20114;-73
2022/11/06 00:51:08;;;;;;;6.00;2.92;;;0.40;99.90;;;;;;5110199;28;20020;-74
2022/11/06 00:53:34;;;;;;;2.38;1.45;;;0.50;99.90;;;;;;5110285;28;20031;-73
2022/11/06 00:56:26;;;;;;;2.50;2.22;;;0.40;99.90;;;;;;5110247;28;20372;-73
2022/11/06 00:58:52;;;;;;;3.65;2.72;;;0.40;99.90;;;;;;5105732;28;20050;-76
2022/11/06 01:01:21;;;;;;;2.80;1.70;;;0.50;99.90;;;;;;5110161;28;20020;-74
2022/11/06 01:03:50;;;;;;;2.20;1.50;;;0.60;99.90;;;;;;5110297;28;20291;-75
2022/11/06 01:06:19;;;;;;;2.80;1.83;;;0.60;99.90;;;;;;5091891;28;20537;-74
2022/11/06 01:08:45;;;;;;;4.80;1.88;;;2.00;99.90;;;;;;5110017;28;20619;-74
2022/11/06 01:11:17;;;;;;;3.97;2.35;;;1.50;99.90;;;;;;5091817;28;20414;-74
2022/11/06 01:13:44;;;;;;;2.92;1.58;;;1.50;99.90;;;;;;5088372;28;20020;-78
2022/11/06 01:16:12;;;;;;;2.35;1.25;;;1.70;99.90;;;;;;5071836;28;20016;-74
2022/11/06 01:18:40;;;;;;;1.63;1.38;;;1.40;99.90;;;;;;5089449;28;20059;-77
2022/11/06 01:21:08;;;;;;;1.60;1.48;;;0.40;99.90;;;;;;5089983;28;20031;-74
2022/11/06 01:23:33;;;;;;;2.08;1.88;;;1.10;99.90;;;;;;5071432;28;20032;-74
2022/11/06 01:26:02;;;;;;;1.90;1.65;;;2.50;99.90;;;;;;5089574;28;20026;-73
2022/11/06 01:28:28;;;;;;;4.90;3.10;;;2.20;99.90;;;;;;5071313;28;20028;-73
2022/11/06 01:30:54;;;;;;;3.95;2.33;;;0.30;99.90;;;;;;5089662;28;20024;-74
2022/11/06 01:33:21;;;;;;;2.75;2.50;;;0.30;99.90;;;;;;5071085;28;20040;-74
2022/11/06 01:35:47;;;;;;;3.05;1.67;;;0.40;99.90;;;;;;5089741;28;20123;-73
2022/11/06 01:38:13;;;;;;;1.92;1.52;;;0.30;99.90;;;;;;5089669;28;20138;-74
2022/11/06 01:40:44;;;;;;;3.58;1.98;;;0.10;99.90;;;;;;5071491;28;20028;-73
2022/11/06 01:43:20;;;;;;;3.17;2.17;;;2.20;99.90;;;;;;5071451;28;20020;-75
2022/11/06 01:45:49;;;;;;;3.55;2.20;;;1.70;99.90;;;;;;5089432;28;20028;-73
2022/11/06 01:48:18;;;;;;;5.95;2.50;;;0.30;99.90;;;;;;5089556;28;20047;-73
2022/11/06 01:50:48;;;;;;;7.82;2.58;;;0.20;99.90;;;;;;5088997;28;20557;-75
2022/11/06 01:53:14;;;;;;;5.97;1.75;;;1.90;99.90;;;;;;5089487;28;20020;-73
2022/11/06 01:55:44;;;;;;;3.78;2.60;;;2.10;99.90;;;;;;5071534;28;20028;-76
2022/11/06 01:58:15;;;;;;;3.88;2.42;;;1.50;99.90;;;;;;5089489;28;20036;-73
2022/11/06 02:00:42;;;;;;;2.60;1.88;;;0.20;99.90;;;;;;5071374;28;20031;-74
2022/11/06 02:03:08;;;;;;;3.65;2.53;;;0.10;99.90;;;;;;5070810;28;20127;-73
2022/11/06 02:05:33;;;;;;;2.45;1.98;;;2.80;99.90;;;;;;5089314;28;20484;-74
2022/11/06 02:08:00;;;;;;;3.65;1.77;;;0.60;99.90;;;;;;5089180;28;20032;-74
2022/11/06 02:10:26;;;;;;;3.95;2.17;;;2.30;99.90;;;;;;5089773;28;20024;-75
2022/11/06 02:13:10;;;;;;;10.95;2.25;;;2.80;99.90;;;;;;5089448;28;20537;-74
2022/11/06 02:15:36;;;;;;;3.97;1.85;;;;;;;;;;5089492;28;20020;-75
2022/11/06 02:18:28;;;;;;;4.35;1.83;;;0.10;99.90;;;;;;5069439;28;20051;-77
2022/11/06 02:21:09;;;;;;;2.17;2.00;;;0.20;99.90;;;;;;5089209;28;20027;-73
2022/11/06 02:23:57;;;;;;;3.25;2.53;;;0.20;99.90;;;;;;5089008;28;20020;-75
2022/11/06 02:26:44;;;;;;;5.00;2.85;;;0.00;99.90;;;;;;5089110;28;20229;-73
2022/11/06 02:29:17;;;;;;;2.78;2.00;;;0.00;99.90;;;;;;5070998;28;20035;-73
2022/11/06 02:31:45;;;;;;;5.78;2.33;;;-0.10;99.90;;;;;;5089249;28;20032;-74
2022/11/06 02:34:15;;;;;;;3.60;2.28;;;2.20;99.90;;;;;;5089413;28;20046;-74
2022/11/06 02:36:50;;;;;;;5.07;3.25;;;2.20;99.90;;;;;;5092721;28;20020;-75
2022/11/06 02:39:19;;;;;;;6.40;3.22;;;-0.20;99.90;;;;;;5092749;28;20429;-74
2022/11/06 02:41:46;;;;;;;3.55;2.17;;;-0.20;99.90;;;;;;5092735;28;20032;-74
2022/11/06 02:44:17;;;;;;;3.40;2.35;;;-0.20;99.90;;;;;;5074288;28;20384;-74
2022/11/06 02:46:47;;;;;;;6.15;2.40;;;-0.20;99.90;;;;;;5092569;28;20151;-74
2022/11/06 02:49:16;;;;;;;4.10;2.58;;;1.70;99.90;;;;;;5092456;28;20545;-74
2022/11/06 02:51:47;;;;;;;3.83;2.67;;;2.10;99.90;;;;;;5092483;28;20120;-74
2022/11/06 02:54:16;;;;;;;2.13;1.23;;;-0.20;99.90;;;;;;5092492;28;20071;-74
2022/11/06 02:56:45;;;;;;;2.20;1.58;;;-0.20;99.90;;;;;;5074009;28;20088;-74
2022/11/06 02:59:25;;;;;;;7.20;2.35;;;-0.20;99.90;;;;;;5092325;28;20028;-73
2022/11/06 03:02:00;;;;;;;2.88;1.77;;;-0.20;99.90;;;;;;5092089;28;20030;-73
2022/11/06 03:04:40;;;;;;;5.68;1.77;;;-0.10;99.90;;;;;;5092271;28;20084;-74
2022/11/06 03:07:40;;;;;;;3.33;2.95;;;-0.10;99.90;;;;;;5092060;28;20024;-74
2022/11/06 03:10:06;;;;;;;2.00;1.50;;;-0.10;99.90;;;;;;5092286;28;20103;-75
2022/11/06 03:12:47;;;;;;;3.45;2.25;;;-0.10;99.90;;;;;;5073729;28;20031;-75
2022/11/06 03:15:33;;;;;;;3.47;1.73;;;-0.30;99.90;;;;;;5092069;28;20055;-75
2022/11/06 03:18:24;;;;;;;2.28;1.75;;;-0.30;99.90;;;;;;5073569;28;20028;-74
2022/11/06 03:21:24;;;;;;;2.17;1.60;;;-0.30;99.90;;;;;;5073620;28;20064;-75
2022/11/06 03:24:00;;;;;;;3.72;2.45;;;-0.40;99.90;;;;;;5091901;28;20116;-75
2022/11/06 03:26:37;;;;;;;2.58;2.25;;;-0.40;99.90;;;;;;5091781;28;20020;-74
2022/11/06 03:29:20;;;;;;;2.22;2.03;;;-0.30;99.90;;;;;;5091768;28;20020;-73
2022/11/06 03:31:55;;;;;;;4.57;2.20;;;0.20;99.90;;;;;;5091743;28;20027;-74
2022/11/06 03:34:56;;;;;;;2.40;2.03;;;-0.40;99.90;;;;;;5091467;28;20044;-74
2022/11/06 03:37:29;;;;;;;3.97;2.28;;;-0.50;99.90;;;;;;5091409;28;20434;-74
2022/11/06 03:40:00;;;;;;;2.33;2.15;;;-0.50;99.90;;;;;;5091735;28;20353;-75
2022/11/06 03:42:29;;;;;;;4.30;2.50;;;-0.60;99.90;;;;;;5091841;28;20414;-74
2022/11/06 03:45:00;;;;;;;2.70;1.35;;;-0.60;99.90;;;;;;5091223;28;20023;-75
2022/11/06 03:47:43;;;;;;;2.88;1.50;;;-0.60;99.90;;;;;;5072050;28;20032;-77
2022/11/06 03:50:08;;;;;;;2.95;2.25;;;-0.60;99.90;;;;;;5072982;28;20493;-74
2022/11/06 03:52:50;;;;;;;2.10;1.90;;;-0.60;99.90;;;;;;5091268;28;20028;-74
2022/11/06 03:55:20;;;;;;;5.40;2.35;;;-0.50;99.90;;;;;;5091674;28;20536;-74
2022/11/06 03:57:52;;;;;;;5.00;1.75;;;-0.50;99.90;;;;;;5091298;28;20050;-74
2022/11/06 04:00:19;;;;;;;3.00;2.10;;;-0.50;99.90;;;;;;5091037;28;20024;-74
2022/11/06 04:02:52;;;;;;;4.18;1.85;;;-0.50;99.90;;;;;;5091091;28;20024;-74
2022/11/06 04:05:23;;;;;;;4.30;2.67;;;-0.50;99.90;;;;;;5090976;28;20039;-74
2022/11/06 04:16:15;;;;;;;2.95;1.73;;;1.60;99.90;;;;;;5091128;28;20035;-75
2022/11/06 04:18:41;;;;;;;4.07;2.63;;;-0.60;99.90;;;;;;5090706;28;20107;-74
2022/11/06 04:21:30;;;;;;;6.00;2.13;;;-0.60;99.90;;;;;;5090795;28;20107;-78
2022/11/06 04:27:30;;;;;;;3.53;2.30;;;-0.60;99.90;;;;;;5090872;28;20130;-74
2022/11/06 04:30:01;;;;;;;4.35;2.40;;;-0.60;99.90;;;;;;5072494;28;20057;-74
2022/11/06 04:33:07;;;;;;;3.33;1.98;;;-0.10;99.90;;;;;;5090533;28;20024;-74
2022/11/06 04:35:51;;;;;;;4.05;2.70;;;-0.50;99.90;;;;;;5072158;28;20552;-74
2022/11/06 04:38:33;;;;;;;5.00;3.90;;;-0.40;99.90;;;;;;5090431;28;20036;-76
2022/11/06 04:41:23;;;;;;;3.42;2.72;;;-0.40;99.90;;;;;;5071868;28;20105;-73
2022/11/06 04:44:12;;;;;;;7.25;3.42;;;-0.40;99.90;;;;;;5090293;28;20117;-74
2022/11/06 04:46:44;;;;;;;6.18;2.75;;;-0.40;99.90;;;;;;5089841;28;20032;-73
2022/11/06 04:49:11;;;;;;;8.43;3.42;;;-0.40;99.90;;;;;;5072155;28;20032;-74
2022/11/06 04:51:39;;;;;;;3.05;2.55;;;-0.40;99.90;;;;;;5090343;28;20020;-73
2022/11/06 04:54:07;;;;;;;4.05;1.85;;;-0.50;99.90;;;;;;5090328;28;20020;-77
2022/11/06 04:56:34;;;;;;;5.57;2.40;;;-0.60;99.90;;;;;;5090382;28;20035;-74
2022/11/06 04:59:00;;;;;;;10.90;3.47;;;-0.60;99.90;;;;;;5090026;28;20028;-75
2022/11/06 05:01:26;;;;;;;3.47;2.47;;;-0.60;99.90;;;;;;5071796;28;20388;-73
2022/11/06 05:03:52;;;;;;;4.85;2.33;;;-0.30;99.90;;;;;;5089881;28;20103;-74
2022/11/06 05:06:18;;;;;;;4.68;2.72;;;-0.50;99.90;;;;;;5090346;28;20452;-73
2022/11/06 05:08:44;;;;;;;4.22;2.45;;;;;;;;;;5089942;28;20095;-74
2022/11/06 05:11:10;;;;;;;3.70;2.58;;;-0.60;99.90;;;;;;5090043;28;20023;-74
2022/11/06 05:13:37;;;;;;;2.83;2.47;;;-0.30;99.90;;;;;;5089846;28;20065;-75
2022/11/06 05:16:03;;;;;;;5.88;2.13;;;-0.80;99.90;;;;;;5071844;28;20036;-73
2022/11/06 05:18:29;;;;;;;4.72;2.10;;;-0.80;99.90;;;;;;5089446;28;20393;-73
2022/11/06 05:23:46;;;;;;;5.43;3.38;;;-0.80;99.90;;;;;;5089765;28;20031;-76
2022/11/06 05:26:11;;;;;;;5.13;3.03;;;-0.70;99.90;;;;;;5089625;28;20793;-76
2022/11/06 05:28:37;;;;;;;4.15;2.70;;;-0.70;99.90;;;;;;5089675;28;20449;-73
2022/11/06 05:31:03;;;;;;;8.95;2.05;;;-0.80;99.90;;;;;;5089853;28;20993;-73
2022/11/06 05:33:28;;;;;;;5.57;2.42;;;-0.80;99.90;;;;;;5089555;28;20036;-74
2022/11/06 05:35:54;;;;;;;6.93;3.63;;;-0.60;99.90;;;;;;5089530;28;20031;-74
2022/11/06 05:38:20;;;;;;;3.42;2.63;;;-0.50;99.90;;;;;;5089777;28;20058;-74
2022/11/06 05:40:46;;;;;;;2.75;2.10;;;-0.40;99.90;;;;;;5089804;28;20036;-73
2022/11/06 05:43:12;;;;;;;4.70;2.67;;;-0.30;99.90;;;;;;5089653;28;20298;-73
2022/11/06 05:45:37;;;;;;;3.40;2.83;;;-0.20;99.90;;;;;;5089633;28;20421;-73
2022/11/06 05:48:03;;;;;;;12.48;3.92;;;-0.10;99.90;;;;;;5089633;28;20103;-74
2022/11/06 05:50:29;;;;;;;7.32;3.80;;;-0.10;99.90;;;;;;5071356;28;20369;-73
2022/11/06 05:52:58;;;;;;;6.53;3.25;;;0.00;99.90;;;;;;5089535;28;20060;-76
2022/11/06 05:55:24;;;;;;;3.40;2.15;;;0.10;99.90;;;;;;5089558;28;20058;-73
2022/11/06 05:57:50;;;;;;;13.95;3.80;;;0.10;99.90;;;;;;5089384;28;20072;-73
2022/11/06 06:00:15;;;;;;;6.93;3.33;;;1.30;99.90;;;;;;5089760;28;20491;-73
2022/11/06 06:02:41;;;;;;;4.47;2.92;;;0.20;99.90;;;;;;5070745;28;20039;-74
2022/11/06 06:05:08;;;;;;;7.35;4.75;;;0.40;99.90;;;;;;5089353;28;20063;-77
2022/11/06 06:07:34;;;;;;;9.02;3.45;;;0.30;99.90;;;;;;5089712;28;20035;-74
2022/11/06 06:09:59;;;;;;;6.13;3.30;;;0.70;99.90;;;;;;5091852;28;20028;-75
2022/11/06 06:12:25;;;;;;;5.13;2.90;;;0.40;99.90;;;;;;5093382;28;20077;-75
2022/11/06 06:14:52;;;;;;;5.40;4.65;;;0.50;99.90;;;;;;5075007;28;20039;-77
2022/11/06 06:17:17;;;;;;;9.90;5.93;;;0.60;99.90;;;;;;5093401;28;20035;-74
2022/11/06 06:19:43;;;;;;;17.05;8.18;;;1.20;99.90;;;;;;5093376;28;20468;-74
2022/11/06 06:22:09;;;;;;;12.55;8.18;;;0.90;99.90;;;;;;5093473;28;20023;-74
2022/11/06 06:24:34;;;;;;;13.38;6.43;;;1.10;99.90;;;;;;5093350;28;20020;-74
2022/11/06 06:27:00;;;;;;;15.77;6.32;;;1.30;99.90;;;;;;5093067;28;20024;-75
2022/11/06 06:29:26;;;;;;;14.68;8.23;;;1.50;99.90;;;;;;5093095;28;20024;-74
2022/11/06 06:31:52;;;;;;;19.98;6.45;;;2.10;99.90;;;;;;5093347;28;20027;-74
2022/11/06 06:34:17;;;;;;;14.05;7.18;;;1.80;99.90;;;;;;5092826;28;20048;-74
2022/11/06 06:36:43;;;;;;;13.88;7.13;;;1.90;99.90;;;;;;5093017;28;20542;-75
2022/11/06 06:39:09;;;;;;;10.85;6.65;;;2.10;99.90;;;;;;5093340;28;20016;-75
2022/11/06 06:41:35;;;;;;;13.30;6.78;;;2.90;99.90;;;;;;5093043;28;20081;-77
2022/11/06 06:44:01;;;;;;;12.40;6.40;;;2.30;99.90;;;;;;5093206;28;20399;-75
2022/11/06 06:46:26;;;;;;;10.93;7.40;;;2.30;99.90;;;;;;5093020;28;20032;-75
2022/11/06 06:48:52;;;;;;;10.63;5.22;;;2.40;99.90;;;;;;5092558;28;20020;-74
2022/11/06 06:51:18;;;;;;;10.75;6.38;;;2.70;99.90;;;;;;5092640;28;20460;-75
2022/11/06 06:53:43;;;;;;;9.15;5.50;;;2.90;99.90;;;;;;5092774;28;20055;-76
2022/11/06 06:56:09;;;;;;;8.13;5.70;;;2.70;99.90;;;;;;5092633;28;20035;-76
2022/11/06 06:58:35;;;;;;;12.00;5.15;;;2.90;99.90;;;;;;5093039;28;20035;-76
2022/11/06 07:01:03;;;;;;;7.97;4.75;;;2.70;99.90;;;;;;5092540;28;20031;-76
2022/11/06 07:03:29;;;;;;;7.20;4.65;;;3.10;99.90;;;;;;5092387;28;20260;-74
2022/11/06 07:05:57;;;;;;;11.30;6.47;;;3.80;99.90;;;;;;5092374;28;20016;-77
2022/11/06 07:08:23;;;;;;;12.95;6.70;;;2.60;99.90;;;;;;5092514;28;20016;-76
2022/11/06 07:10:49;;;;;;;6.72;4.90;;;2.70;99.90;;;;;;5092166;28;20020;-74
2022/11/06 07:13:15;;;;;;;8.73;4.97;;;3.30;99.90;;;;;;5092777;28;20346;-78
2022/11/06 07:15:40;;;;;;;7.63;5.35;;;2.70;99.90;;;;;;5092417;28;20369;-74
2022/11/06 07:18:06;;;;;;;9.88;6.45;;;3.20;99.90;;;;;;5092099;28;20066;-75
2022/11/06 07:20:33;;;;;;;11.27;6.15;;;2.80;99.90;;;;;;5092096;28;20507;-74
2022/11/06 07:23:05;;;;;;;8.60;5.53;;;3.20;99.90;;;;;;5074115;28;20451;-75
2022/11/06 07:25:31;;;;;;;7.20;4.70;;;3.60;99.90;;;;;;5073781;28;20027;-78
2022/11/06 07:28:01;;;;;;;9.10;6.13;;;3.40;99.90;;;;;;5073519;28;20021;-75
2022/11/06 07:30:26;;;;;;;11.13;5.10;;;3.00;99.90;;;;;;5091704;28;20103;-76
2022/11/06 07:32:52;;;;;;;9.77;4.30;;;3.20;99.90;;;;;;5091723;28;20465;-74
2022/11/06 07:35:18;;;;;;;16.60;7.53;;;4.20;99.90;;;;;;5073449;28;20027;-75
2022/11/06 07:37:43;;;;;;;11.27;4.93;;;4.20;99.90;;;;;;5091630;28;20067;-75
2022/11/06 07:40:09;;;;;;;11.23;5.97;;;3.70;99.90;;;;;;5091731;28;20099;-77
2022/11/06 07:42:35;;;;;;;11.40;5.07;;;3.60;99.90;;;;;;5091592;28;20385;-75
2022/11/06 07:45:01;;;;;;;7.95;5.50;;;3.80;99.90;;;;;;5082861;28;20295;-78
2022/11/06 07:47:29;;;;;;;8.68;5.68;;;3.90;99.90;;;;;;5075492;28;20090;-76
2022/11/06 07:49:55;;;;;;;10.20;6.03;;;4.10;99.90;;;;;;5090765;28;20058;-78
2022/11/06 07:52:20;;;;;;;8.70;5.35;;;4.90;99.90;;;;;;5108405;28;20032;-75
2022/11/06 07:54:46;;;;;;;9.90;5.55;;;4.30;99.90;;;;;;5108432;28;20042;-75
2022/11/06 07:57:12;;;;;;;6.95;5.13;;;4.30;99.90;;;;;;5089702;28;20177;-75
2022/11/06 07:59:37;;;;;;;11.57;5.55;;;5.70;99.90;;;;;;5090277;28;20020;-75
2022/11/06 08:02:03;;;;;;;8.02;4.63;;;5.60;99.90;;;;;;5091510;28;20024;-77
2022/11/06 08:04:29;;;;;;;10.85;6.00;;;5.40;99.90;;;;;;5088605;28;20424;-75
2022/11/06 08:06:56;;;;;;;11.00;5.97;;;4.80;99.90;;;;;;5090070;28;20179;-75
2022/11/06 08:09:23;;;;;;;10.93;7.72;;;4.90;99.90;;;;;;5071622;28;20446;-75
2022/11/06 08:11:49;;;;;;;19.60;7.88;;;4.90;99.90;;;;;;5089712;28;20013;-75
2022/11/06 08:14:15;;;;;;;21.33;9.13;;;6.40;99.90;;;;;;5089664;28;20024;-76
2022/11/06 08:16:41;;;;;;;14.90;6.65;;;5.00;99.90;;;;;;5088337;28;20243;-76
2022/11/06 08:19:07;;;;;;;12.25;4.90;;;5.10;99.90;;;;;;5088588;28;20388;-75
2022/11/06 08:21:33;;;;;;;12.27;5.97;;;6.10;99.90;;;;;;5088346;28;20031;-75
2022/11/06 08:23:59;;;;;;;8.82;5.28;;;5.70;99.90;;;;;;5089547;28;20024;-75
2022/11/06 08:26:28;;;;;;;6.70;3.97;;;5.60;99.90;;;;;;5089462;28;20643;-77
2022/11/06 08:28:53;;;;;;;6.80;3.83;;;6.60;99.90;;;;;;5089224;28;20028;-76
2022/11/06 08:31:19;;;;;;;5.10;3.85;;;5.70;99.90;;;;;;5088788;28;20085;-75
2022/11/06 08:33:45;;;;;;;9.13;5.25;;;5.90;99.90;;;;;;5088347;28;20450;-75
2022/11/06 08:36:11;;;;;;;6.80;4.30;;;5.90;99.90;;;;;;5089020;28;20081;-76
2022/11/06 08:38:37;;;;;;;7.85;3.95;;;6.30;99.90;;;;;;5088636;28;20101;-74
2022/11/06 08:41:07;;;;;;;4.40;2.75;;;5.90;99.90;;;;;;5089861;28;20048;-75
2022/11/06 08:43:34;;;;;;;6.28;3.08;;;5.90;99.90;;;;;;5071424;28;20051;-76
2022/11/06 08:46:00;;;;;;;5.32;3.13;;;5.90;99.90;;;;;;5088712;28;20017;-75
2022/11/06 08:48:25;;;;;;;3.58;3.15;;;5.90;99.90;;;;;;5088556;28;20530;-75
2022/11/06 08:50:51;;;;;;;4.90;3.33;;;6.00;99.90;;;;;;5088762;28;20032;-76
2022/11/06 08:53:16;;;;;;;6.05;4.10;;;6.50;99.90;;;;;;5088780;28;20021;-75
2022/11/06 08:55:42;;;;;;;7.97;4.05;;;6.30;99.90;;;;;;5088698;28;20016;-75
2022/11/06 08:58:08;;;;;;;10.80;4.45;;;6.20;99.90;;;;;;5088207;28;20040;-75
2022/11/06 09:00:35;;;;;;;10.85;4.55;;;6.30;99.90;;;;;;5089586;28;20050;-76
2022/11/06 09:03:03;;;;;;;13.75;5.25;;;6.30;99.90;;;;;;5089845;28;20110;-75
2022/11/06 09:05:30;;;;;;;7.85;5.20;;;6.30;99.90;;;;;;5090210;28;20028;-77
2022/11/06 09:07:59;;;;;;;7.15;3.97;;;6.40;99.90;;;;;;5090131;28;20480;-76
2022/11/06 09:10:26;;;;;;;10.40;5.25;;;6.30;99.90;;;;;;5089895;28;20028;-77
2022/11/06 09:12:51;;;;;;;9.95;4.00;;;6.20;99.90;;;;;;5089934;28;20366;-75
2022/11/06 09:15:19;;;;;;;5.78;3.70;;;6.50;99.90;;;;;;5071757;28;20031;-78
2022/11/06 09:17:50;;;;;;;8.70;4.30;;;6.30;99.90;;;;;;5089689;28;20118;-76
2022/11/06 09:20:17;;;;;;;5.85;4.90;;;6.40;99.90;;;;;;5089940;28;20500;-75
2022/11/06 09:22:44;;;;;;;6.45;3.55;;;6.40;99.90;;;;;;5089861;28;20044;-75
2022/11/06 09:25:10;;;;;;;7.05;4.20;;;6.40;99.90;;;;;;5090083;28;20481;-74
2022/11/06 09:27:47;;;;;;;8.15;4.03;;;6.40;99.90;;;;;;5089792;28;20067;-75
2022/11/06 09:30:14;;;;;;;7.95;4.00;;;6.40;99.90;;;;;;5089884;28;20024;-74
2022/11/06 09:32:55;;;;;;;11.10;4.97;;;6.50;99.90;;;;;;5089265;28;20020;-77
2022/11/06 09:35:22;;;;;;;9.95;4.50;;;6.50;99.90;;;;;;5089626;28;20472;-75
2022/11/06 09:37:48;;;;;;;7.68;4.05;;;6.60;99.90;;;;;;5089681;28;20032;-75
2022/11/06 09:40:35;;;;;;;5.75;3.50;;;6.60;99.90;;;;;;5089750;28;20074;-75
2022/11/06 09:43:23;;;;;;;9.05;4.55;;;6.80;99.90;;;;;;5089855;28;20020;-76
2022/11/06 09:45:50;;;;;;;4.93;3.03;;;6.80;99.90;;;;;;5093431;28;20023;-75
2022/11/06 09:48:18;;;;;;;10.70;4.38;;;7.00;99.90;;;;;;5093799;28;20110;-75
2022/11/06 09:50:54;;;;;;;8.93;4.83;;;7.10;99.90;;;;;;5093867;28;20059;-76
2022/11/06 09:53:40;;;;;;;6.95;3.80;;;7.10;99.90;;;;;;5075404;28;20600;-78
2022/11/06 09:56:11;;;;;;;8.65;4.57;;;7.20;99.90;;;;;;5093751;28;20504;-75
2022/11/06 09:58:41;;;;;;;5.55;4.03;;;7.50;99.90;;;;;;5093732;28;20039;-74
2022/11/06 10:01:14;;;;;;;;;;;7.60;99.90;;;;;;5094123;28;20016;-74
2022/11/06 10:03:51;;;;;;;5.03;3.40;;;7.70;99.90;;;;;;5075215;28;19904;-75
2022/11/06 10:06:20;;;;;;;7.65;3.85;;;7.70;99.90;;;;;;5093336;28;20028;-75
2022/11/06 10:08:46;;;;;;;7.38;3.50;;;7.90;99.90;;;;;;5093648;28;20047;-74
2022/11/06 10:11:15;;;;;;;11.07;3.20;;;8.00;99.90;;;;;;5093420;28;20480;-74
2022/11/06 10:14:05;;;;;;;5.27;3.10;;;7.90;99.90;;;;;;5093398;28;20472;-75
2022/11/06 10:16:44;;;;;;;5.38;3.50;;;8.00;99.90;;;;;;5074885;28;20023;-75
2022/11/06 10:19:19;;;;;;;8.38;3.90;;;8.00;99.90;;;;;;5093159;28;20062;-74
2022/11/06 10:22:38;;;;;;;6.00;3.85;;;8.10;99.90;;;;;;5093236;28;20499;-75
2022/11/06 10:25:12;;;;;;;8.20;3.60;;;8.30;99.90;;;;;;4974418;28;20026;-77
2022/11/06 10:27:45;;;;;;;4.85;2.58;;;8.20;99.90;;;;;;4990707;28;20022;-77
2022/11/06 10:30:17;;;;;;;5.95;3.33;;;8.40;99.90;;;;;;5048576;28;20470;-75
2022/11/06 10:33:01;;;;;;;4.85;3.33;;;10.60;99.90;;;;;;5092686;28;20027;-76
2022/11/06 10:35:36;;;;;;;6.50;3.15;;;8.60;99.90;;;;;;5093001;28;20085;-75
2022/11/06 10:38:23;;;;;;;6.05;3.38;;;8.90;99.90;;;;;;5074684;28;20032;-78
2022/11/06 10:40:50;;;;;;;5.38;2.88;;;8.90;99.90;;;;;;5093262;28;20020;-75
2022/11/06 10:43:48;;;;;;;4.63;3.47;;;9.00;99.90;;;;;;5092934;28;20031;-78
2022/11/06 10:46:33;;;;;;;4.22;2.92;;;9.40;99.90;;;;;;5091296;28;20449;-76
2022/11/06 10:49:01;;;;;;;4.15;2.55;;;9.70;99.90;;;;;;5074550;28;20514;-75
2022/11/06 10:51:51;;;;;;;4.00;2.88;;;9.70;99.90;;;;;;5092656;28;20023;-77
2022/11/06 10:54:25;;;;;;;4.35;2.60;;;9.70;99.90;;;;;;5092507;28;20028;-74
2022/11/06 10:57:12;;;;;;;3.13;2.30;;;9.60;99.90;;;;;;5092069;28;20078;-75
2022/11/06 10:59:38;;;;;;;3.60;2.65;;;9.40;99.90;;;;;;5092649;28;20028;-74
2022/11/06 11:02:14;;;;;;;7.60;3.67;;;9.30;99.90;;;;;;5092257;28;20043;-74
2022/11/06 11:04:42;;;;;;;7.13;2.42;;;9.30;99.90;;;;;;5092315;28;20016;-75
2022/11/06 11:07:17;;;;;;;4.95;2.65;;;9.40;99.90;;;;;;5092595;28;20236;-78
2022/11/06 11:09:45;;;;;;;5.60;3.03;;;9.40;99.90;;;;;;5092402;28;20114;-75
2022/11/06 11:12:27;;;;;;;5.35;2.80;;;11.50;99.90;;;;;;5092425;28;20426;-77
2022/11/06 11:15:10;;;;;;;2.72;1.92;;;9.60;99.90;;;;;;5092244;28;20020;-75
2022/11/06 11:17:36;;;;;;;4.63;2.63;;;9.70;99.90;;;;;;5091784;28;20059;-74
2022/11/06 11:20:04;;;;;;;3.75;2.50;;;9.70;99.90;;;;;;5092246;28;20191;-75
2022/11/06 11:22:29;;;;;;;4.78;2.67;;;9.50;99.90;;;;;;5092516;28;20084;-75
2022/11/06 11:25:03;;;;;;;6.35;3.03;;;9.20;99.90;;;;;;5091842;28;20492;-74
2022/11/06 11:27:33;;;;;;;3.60;2.60;;;9.20;99.90;;;;;;5091952;28;20477;-74
2022/11/06 11:30:04;;;;;;;4.80;2.28;;;9.60;99.90;;;;;;5091766;28;20068;-75
2022/11/06 11:32:30;;;;;;;2.20;2.00;;;9.60;99.90;;;;;;5091734;28;20061;-75
2022/11/06 11:34:57;;;;;;;4.05;2.65;;;9.80;99.90;;;;;;5091731;28;20484;-76
2022/11/06 11:37:31;;;;;;;2.40;2.03;;;9.90;99.90;;;;;;5091678;28;20036;-74
2022/11/06 11:40:19;;;;;;;4.03;2.45;;;10.30;99.90;;;;;;5091762;28;20024;-75
2022/11/06 11:42:51;;;;;;;3.35;2.42;;;10.60;99.90;;;;;;5091544;28;20012;-76
2022/11/06 11:45:19;;;;;;;4.25;2.08;;;10.60;99.90;;;;;;5091752;28;20024;-75
2022/11/06 11:47:48;;;;;;;5.28;2.90;;;10.80;99.90;;;;;;5073115;28;20353;-75
2022/11/06 11:50:32;;;;;;;4.60;2.78;;;10.90;99.90;;;;;;5091383;28;20399;-78
2022/11/06 11:53:12;;;;;;;3.95;2.50;;;11.00;99.90;;;;;;5091365;28;20027;-75
2022/11/06 11:55:44;;;;;;;1.70;1.60;;;11.10;99.90;;;;;;5091401;28;20054;-75
2022/11/06 11:58:31;;;;;;;3.65;2.58;;;11.10;99.90;;;;;;5091371;28;20028;-75
2022/11/06 12:01:01;;;;;;;3.15;1.75;;;10.40;99.90;;;;;;5091794;28;20484;-78
2022/11/06 12:03:33;;;;;;;3.65;2.65;;;10.20;99.90;;;;;;5090879;28;20016;-75
2022/11/06 12:06:11;;;;;;;4.57;2.22;;;10.10;99.90;;;;;;5091097;28;20021;-75
2022/11/06 12:08:39;;;;;;;5.93;3.40;;;10.20;99.90;;;;;;5090654;28;20020;-76
2022/11/06 12:11:06;;;;;;;4.32;2.33;;;10.30;99.90;;;;;;5090906;28;20107;-75
2022/11/06 12:13:32;;;;;;;4.90;2.22;;;10.10;99.90;;;;;;5091089;28;20035;-74
2022/11/06 12:15:59;;;;;;;3.88;2.08;;;9.90;99.90;;;;;;5072639;28;20058;-75
2022/11/06 12:18:27;;;;;;;4.18;2.65;;;9.60;99.90;;;;;;5090461;28;20032;-75
2022/11/06 12:21:20;;;;;;;3.10;2.00;;;9.50;99.90;;;;;;5090773;28;20024;-76
2022/11/06 12:23:58;;;;;;;3.08;2.22;;;9.60;99.90;;;;;;5090939;28;20023;-77
2022/11/06 12:26:46;;;;;;;2.60;1.85;;;9.70;99.90;;;;;;5072536;28;20035;-77
2022/11/06 12:29:23;;;;;;;3.35;1.88;;;9.80;99.90;;;;;;5091041;28;20230;-75
2022/11/06 12:32:26;;;;;;;2.65;1.75;;;9.70;99.90;;;;;;5090930;28;20038;-77
2022/11/06 12:35:03;;;;;;;3.25;1.77;;;9.70;99.90;;;;;;5090945;28;20048;-75
2022/11/06 12:37:42;;;;;;;2.60;1.67;;;9.70;99.90;;;;;;5090733;28;20132;-75
2022/11/06 12:40:43;;;;;;;4.20;1.83;;;9.80;99.90;;;;;;5090568;28;20476;-78
2022/11/06 12:43:14;;;;;;;2.97;1.90;;;9.90;99.90;;;;;;5089410;28;20062;-75
2022/11/06 12:46:06;;;;;;;7.40;2.45;;;10.10;99.90;;;;;;5090770;28;20549;-75
2022/11/06 12:48:46;;;;;;;7.95;2.55;;;10.30;99.90;;;;;;5090465;28;20016;-74
2022/11/06 12:51:55;;;;;;;2.33;1.70;;;10.30;99.90;;;;;;5090877;28;20019;-76
2022/11/06 12:55:01;;;;;;;4.00;2.33;;;10.50;99.90;;;;;;5090353;28;20051;-75
2022/11/06 12:57:46;;;;;;;4.97;2.65;;;10.80;99.90;;;;;;5090387;28;20040;-78
2022/11/06 13:00:17;;;;;;;5.50;2.95;;;10.80;99.90;;;;;;5090213;28;20056;-75
2022/11/06 13:03:14;;;;;;;3.42;2.40;;;10.90;99.90;;;;;;5089955;28;20028;-75
2022/11/06 13:05:50;;;;;;;1.60;1.42;;;12.10;99.90;;;;;;5090260;28;20063;-75
2022/11/06 13:08:28;;;;;;;1.85;1.52;;;13.80;99.90;;;;;;5090582;28;20023;-75
2022/11/06 13:10:54;;;;;;;2.70;2.10;;;14.80;97.40;;;;;;5089973;28;20031;-74
2022/11/06 13:13:35;;;;;;;2.00;1.15;;;14.60;93.70;;;;;;5071893;28;20028;-74
2022/11/06 13:16:12;;;;;;;2.70;1.55;;;13.20;96.00;;;;;;5089706;28;20491;-75
2022/11/06 13:18:50;;;;;;;3.40;1.42;;;12.40;97.30;;;;;;5089822;28;20035;-75
2022/11/06 13:21:56;;;;;;;1.67;1.58;;;11.40;99.90;;;;;;5090191;28;20162;-75
2022/11/06 13:24:36;;;;;;;2.78;2.10;;;11.30;99.90;;;;;;5090053;28;20020;-78
2022/11/06 13:27:08;;;;;;;3.50;1.85;;;10.90;99.90;;;;;;5090022;28;20066;-75
2022/11/06 13:29:35;;;;;;;1.70;1.40;;;10.60;99.90;;;;;;5090227;28;20043;-75
2022/11/06 13:32:08;;;;;;;2.25;1.30;;;10.60;99.90;;;;;;5089599;28;20401;-75
2022/11/06 13:34:36;;;;;;;2.42;1.90;;;10.70;99.90;;;;;;5089624;28;20047;-77